Havana, Cuba
Current Conditions -  °F | °C
As of 1:55 PM on Thursday 27 Nov 2014 (Local Time) from MUHA Reporting Station
Clear Clear  
Wind Chill: 73°   Ceiling: Unl
Heat Index: 73°   Visibility: 6mi
Dew Point: 41°   Wind: 24mph
Humidity: 31%   Direction: 20°NNE
Pressure: 30.21"   Gusts: NA
Location:  23.12°N, 82.39°W
Report Text: MUHA 271755Z 02021KT 10000 NSC 23/05 Q1023
Loading
Personal Weather Stations






























Interactive Weather Map New forecast layout! Learn more

10-Day Weather Forecast

Advertisements
Track Severe Weather on mobile